createdAt,value
2023-05-03T01:12:51.561Z,1.10
2023-05-03T01:37:33.174Z,1.60
2023-05-03T01:53:25.146Z,1.30
2023-05-03T02:03:30.268Z,1.30
2023-05-03T02:05:57.345Z,1.30
2023-05-03T02:08:24.271Z,1.30
2023-05-03T02:10:51.420Z,2.00
2023-05-03T02:13:18.482Z,1.50
2023-05-03T02:15:45.401Z,1.90
2023-05-03T02:18:15.003Z,1.90
2023-05-03T02:20:45.764Z,1.20
2023-05-03T02:25:40.460Z,2.00
2023-05-03T02:28:07.376Z,1.10
2023-05-03T02:30:35.269Z,0.90
2023-05-03T02:33:02.818Z,1.90
2023-05-03T02:35:30.039Z,1.60
2023-05-03T02:37:57.570Z,1.20
2023-05-03T02:40:24.570Z,1.40
2023-05-03T02:42:52.061Z,1.50
2023-05-03T02:45:21.065Z,0.90
2023-05-03T02:47:48.362Z,1.30
2023-05-03T02:50:15.820Z,1.30
2023-05-03T02:52:42.953Z,1.50
2023-05-03T02:55:09.867Z,1.20
2023-05-03T09:26:16.194Z,1.70
2023-05-03T10:03:47.833Z,2.20
2023-05-03T10:06:27.069Z,2.60
2023-05-03T10:09:08.866Z,2.70
2023-05-03T10:11:38.657Z,1.60
2023-05-03T10:14:06.922Z,2.20
2023-05-03T10:16:37.392Z,2.70
2023-05-03T10:19:14.918Z,2.10
2023-05-03T10:21:49.287Z,2.60
2023-05-03T10:24:17.026Z,2.00
2023-05-03T10:26:47.960Z,2.70
2023-05-03T10:29:34.739Z,1.50
2023-05-03T10:32:03.000Z,1.90
2023-05-03T10:34:32.687Z,2.30
2023-05-03T10:37:22.749Z,2.60
2023-05-03T10:39:52.465Z,4.00
2023-05-03T10:42:24.741Z,2.00
2023-05-03T10:44:56.354Z,1.80
2023-05-03T10:47:23.906Z,2.00
2023-05-03T10:50:15.743Z,2.50
2023-05-03T10:52:44.169Z,2.70
2023-05-03T10:55:12.696Z,3.00
2023-05-03T10:57:43.929Z,2.40
2023-05-03T11:00:32.512Z,2.20
2023-05-03T11:03:30.016Z,2.10
2023-05-03T11:05:57.712Z,3.30
2023-05-03T11:08:32.723Z,2.80
2023-05-03T11:11:00.679Z,3.00
2023-05-03T11:13:28.010Z,3.00
2023-05-03T11:15:55.697Z,2.60
2023-05-03T11:18:30.148Z,2.70
2023-05-03T11:20:57.463Z,2.50
2023-05-03T11:23:29.288Z,2.40
2023-05-03T11:25:58.158Z,2.40
2023-05-03T11:28:50.448Z,2.60
2023-05-03T11:31:17.574Z,2.10
2023-05-03T11:33:46.604Z,2.10
2023-05-03T11:38:42.135Z,5.40
2023-05-03T11:41:17.077Z,2.80
2023-05-03T11:44:04.039Z,3.80
2023-05-03T11:46:37.392Z,2.10
2023-05-03T11:49:17.099Z,1.60
2023-05-03T11:51:48.466Z,1.60
2023-05-03T11:54:25.058Z,2.10
2023-05-03T11:56:56.741Z,2.70
2023-05-03T11:59:35.961Z,1.80
2023-05-03T12:02:07.839Z,1.70
2023-05-03T12:04:42.077Z,2.20
2023-05-03T12:07:11.305Z,1.80
2023-05-03T12:09:39.980Z,2.70
2023-05-03T12:12:13.062Z,2.10
2023-05-03T12:15:03.475Z,1.30
2023-05-03T12:17:39.959Z,1.80
2023-05-03T12:20:51.905Z,1.70
2023-05-03T12:23:09.906Z,3.70
2023-05-03T12:25:40.571Z,2.60
2023-05-03T12:28:20.174Z,2.50
2023-05-03T12:30:48.519Z,2.40
2023-05-03T12:33:17.224Z,1.60
2023-05-03T12:35:47.706Z,2.30
2023-05-03T12:38:17.390Z,1.60
2023-05-03T12:40:46.075Z,1.40
2023-05-03T12:43:13.327Z,2.20
2023-05-03T12:45:41.454Z,1.80
2023-05-03T12:48:09.354Z,1.90
2023-05-03T12:50:38.738Z,2.90
2023-05-03T12:53:09.582Z,2.30
2023-05-03T13:00:25.273Z,2.20
2023-05-03T13:34:22.711Z,2.00
2023-05-03T13:46:10.962Z,2.20
2023-05-03T13:53:22.265Z,2.40
2023-05-03T14:00:32.924Z,2.40
2023-05-03T14:07:43.020Z,2.80
2023-05-03T14:14:54.313Z,1.70
2023-05-03T14:22:05.437Z,1.40
2023-05-03T14:29:15.956Z,1.20
2023-05-03T14:36:33.358Z,2.70
2023-05-03T14:52:41.081Z,1.70
2023-05-03T18:27:21.081Z,9.90
2023-05-03T20:05:53.523Z,3.80
2023-05-03T20:08:21.477Z,4.70
2023-05-03T20:10:49.953Z,4.40
2023-05-03T20:13:17.344Z,3.70
2023-05-03T20:15:44.683Z,5.10
2023-05-03T20:18:11.596Z,5.10
2023-05-03T20:20:39.284Z,5.00
2023-05-03T20:23:06.416Z,6.00
2023-05-03T20:25:33.709Z,5.40
2023-05-03T20:28:00.715Z,7.30
2023-05-03T20:30:29.307Z,8.30
2023-05-03T20:32:56.477Z,8.50
2023-05-03T20:35:23.465Z,5.60
2023-05-03T20:37:50.553Z,6.50
2023-05-03T20:40:17.492Z,6.10
2023-05-03T20:42:44.534Z,4.30
2023-05-03T20:45:12.518Z,4.70
2023-05-03T20:47:39.513Z,6.50
2023-05-03T20:50:09.014Z,5.60
2023-05-03T20:52:39.178Z,4.90
2023-05-03T20:55:06.646Z,4.00
2023-05-03T20:57:33.791Z,5.00
2023-05-03T21:00:02.720Z,4.90
2023-05-03T21:02:30.307Z,4.20
2023-05-03T21:04:57.411Z,3.90
2023-05-03T21:07:24.529Z,6.00
2023-05-03T21:09:51.687Z,3.70
2023-05-03T21:12:18.925Z,4.20
2023-05-03T21:14:46.054Z,4.50
2023-05-03T21:17:14.053Z,4.60
2023-05-03T21:19:41.192Z,3.90
2023-05-03T21:22:09.082Z,5.00
2023-05-03T21:24:39.177Z,4.40
2023-05-03T21:27:06.244Z,4.80
2023-05-03T21:29:33.312Z,5.40
2023-05-03T21:32:00.355Z,5.40
2023-05-03T21:34:27.579Z,5.90
2023-05-03T21:36:54.609Z,4.40
2023-05-03T21:39:21.761Z,6.10
2023-05-03T21:41:49.027Z,6.20
2023-05-03T21:44:16.111Z,5.70
2023-05-03T21:46:43.301Z,5.60
2023-05-03T21:49:10.576Z,5.20
2023-05-03T21:51:37.717Z,5.30
2023-05-03T21:54:04.919Z,5.40
2023-05-03T21:56:32.025Z,6.10
2023-05-03T21:58:59.005Z,7.30
2023-05-03T22:01:26.169Z,8.50
2023-05-03T22:03:53.336Z,7.30
2023-05-03T22:06:20.630Z,7.00
2023-05-03T22:08:47.868Z,8.60
2023-05-03T22:11:17.605Z,8.30
2023-05-03T22:13:59.183Z,7.40
2023-05-03T22:16:31.616Z,6.20
2023-05-03T22:18:58.588Z,7.00
2023-05-03T22:21:25.531Z,6.00
2023-05-03T22:23:52.780Z,5.70
2023-05-03T22:26:19.589Z,5.80
2023-05-03T22:28:46.381Z,5.40
2023-05-03T22:31:13.754Z,7.50
2023-05-03T22:33:40.749Z,10.20
2023-05-03T22:36:08.409Z,8.40
2023-05-03T22:38:35.331Z,6.20
2023-05-03T22:41:02.296Z,5.70
2023-05-03T22:43:29.107Z,5.30
2023-05-03T22:45:58.984Z,5.60
2023-05-03T22:48:32.783Z,5.60
2023-05-03T22:50:59.880Z,5.10
2023-05-03T22:53:26.782Z,4.60
2023-05-03T23:05:15.101Z,5.60
2023-05-03T23:08:07.413Z,5.10
